Time;durP1;ratioP1;P1;durP2;ratioP2;P2;SDS_P1;SDS_P2;PMS_P1;PMS_P2;Temp;Humidity;BMP_temperature;BMP_pressure;BME280_temperature;BME280_humidity;BME280_pressure;Samples;Min_cycle;Max_cycle;Signal;HPM_P1;HPM_P2
2021/01/20 00:00:30;;;;;;;6.53;1.42;;;18.20;47.30;;;;;;5089205;28;20055;-43
2021/01/20 00:02:57;;;;;;;6.03;1.48;;;18.20;47.30;;;;;;5088845;28;20066;-41
2021/01/20 00:05:24;;;;;;;2.75;1.15;;;18.30;47.40;;;;;;5076964;28;20051;-40
2021/01/20 00:07:50;;;;;;;2.35;1.17;;;18.20;47.30;;;;;;5081818;28;20098;-39
2021/01/20 00:10:17;;;;;;;3.33;1.40;;;18.20;47.30;;;;;;5084387;28;20610;-40
2021/01/20 00:12:48;;;;;;;7.65;1.73;;;18.20;47.30;;;;;;5087571;28;20044;-44
2021/01/20 00:15:23;;;;;;;4.50;1.30;;;18.20;47.90;;;;;;5085456;28;20385;-41
2021/01/20 00:17:51;;;;;;;4.80;1.23;;;18.20;47.20;;;;;;5083767;28;20511;-40
2021/01/20 00:20:18;;;;;;;5.03;1.40;;;18.20;47.20;;;;;;5081982;28;20056;-39
2021/01/20 00:22:49;;;;;;;3.67;1.45;;;18.20;47.20;;;;;;5087922;28;20458;-39
2021/01/20 00:25:17;;;;;;;7.28;1.35;;;18.20;47.20;;;;;;5087454;28;20125;-40
2021/01/20 00:27:44;;;;;;;5.53;1.40;;;18.20;47.20;;;;;;5086008;28;20561;-39
2021/01/20 00:30:12;;;;;;;3.45;1.55;;;18.20;47.20;;;;;;5087795;28;20514;-40
2021/01/20 00:32:38;;;;;;;2.88;1.40;;;18.20;47.20;;;;;;5083857;28;20438;-39
2021/01/20 00:35:09;;;;;;;4.82;1.30;;;18.20;47.20;;;;;;5089951;28;20044;-39
2021/01/20 00:37:36;;;;;;;2.72;1.35;;;18.20;47.20;;;;;;5078136;28;20052;-39
2021/01/20 00:40:05;;;;;;;3.85;1.60;;;18.20;47.10;;;;;;5086534;28;20051;-40
2021/01/20 00:42:33;;;;;;;2.88;1.60;;;18.20;47.10;;;;;;5086425;28;20131;-39
2021/01/20 00:45:00;;;;;;;3.40;1.42;;;18.20;47.20;;;;;;5082652;28;20044;-39
2021/01/20 00:47:27;;;;;;;2.22;1.42;;;18.20;47.10;;;;;;5090993;28;20044;-39
2021/01/20 00:49:54;;;;;;;3.72;1.40;;;18.20;47.10;;;;;;5086459;28;20097;-39
2021/01/20 00:52:20;;;;;;;7.25;1.77;;;18.20;47.10;;;;;;5085327;28;20458;-39
2021/01/20 00:54:47;;;;;;;2.55;1.30;;;18.20;47.10;;;;;;5084649;28;20045;-40
2021/01/20 00:57:13;;;;;;;3.67;1.48;;;18.20;47.10;;;;;;5088471;28;20040;-39
2021/01/20 00:59:40;;;;;;;2.22;1.33;;;18.20;47.10;;;;;;5083845;28;20048;-39
2021/01/20 01:02:07;;;;;;;5.80;1.40;;;18.20;47.10;;;;;;5086011;28;20106;-39
2021/01/20 01:04:33;;;;;;;3.47;1.38;;;18.20;47.00;;;;;;5088040;28;20130;-39
2021/01/20 01:07:00;;;;;;;2.75;1.52;;;18.20;47.10;;;;;;5088825;28;20048;-39
2021/01/20 01:09:27;;;;;;;1.83;1.20;;;18.20;47.00;;;;;;5087671;28;20098;-42
2021/01/20 01:11:53;;;;;;;3.17;1.30;;;18.20;47.00;;;;;;5088788;28;20041;-39
2021/01/20 01:14:20;;;;;;;4.40;1.13;;;18.20;47.00;;;;;;5084038;28;20055;-39
2021/01/20 01:16:46;;;;;;;3.60;0.93;;;18.20;47.00;;;;;;5090518;28;20055;-39
2021/01/20 01:19:13;;;;;;;3.67;1.33;;;18.20;46.90;;;;;;5083856;28;20048;-41
2021/01/20 01:21:42;;;;;;;2.38;0.95;;;18.20;46.90;;;;;;5085882;28;20094;-39
2021/01/20 01:24:09;;;;;;;3.28;1.20;;;18.20;47.00;;;;;;5080530;28;20122;-45
2021/01/20 01:26:36;;;;;;;2.13;0.90;;;18.20;47.00;;;;;;5087977;28;20060;-45
2021/01/20 01:29:02;;;;;;;1.50;1.17;;;18.20;46.90;;;;;;5082729;28;20044;-42
2021/01/20 01:31:29;;;;;;;2.72;1.33;;;18.20;46.90;;;;;;5084386;28;20045;-40
2021/01/20 01:33:56;;;;;;;2.42;1.30;;;18.20;46.90;;;;;;5088893;28;20518;-41
2021/01/20 01:36:22;;;;;;;1.83;1.30;;;18.20;46.90;;;;;;5084444;28;20446;-44
2021/01/20 01:38:49;;;;;;;3.72;1.17;;;18.20;46.90;;;;;;5082598;28;20067;-41
2021/01/20 01:41:15;;;;;;;3.45;1.10;;;18.20;46.90;;;;;;5083789;28;20117;-43
2021/01/20 01:43:46;;;;;;;2.58;1.27;;;18.20;46.90;;;;;;5086081;28;20078;-42
2021/01/20 01:46:12;;;;;;;3.72;1.45;;;18.20;46.90;;;;;;5081866;28;20090;-44
2021/01/20 01:48:39;;;;;;;1.52;1.02;;;18.20;46.90;;;;;;5082017;28;20056;-40
2021/01/20 01:51:06;;;;;;;2.25;1.40;;;18.20;46.90;;;;;;5081608;28;20134;-40
2021/01/20 01:53:32;;;;;;;3.38;1.00;;;18.20;46.90;;;;;;5088813;28;20051;-40
2021/01/20 01:55:59;;;;;;;4.32;1.27;;;18.20;46.80;;;;;;5082134;28;20056;-44
2021/01/20 01:58:25;;;;;;;1.23;1.10;;;18.20;46.80;;;;;;5083131;28;20129;-41
2021/01/20 02:00:55;;;;;;;3.10;1.30;;;18.20;46.80;;;;;;5091607;28;20051;-44
2021/01/20 02:03:21;;;;;;;2.92;1.40;;;18.20;46.80;;;;;;5085550;28;20507;-42
2021/01/20 02:05:48;;;;;;;3.70;1.35;;;18.20;46.80;;;;;;5089758;28;20517;-42
2021/01/20 02:08:15;;;;;;;2.95;1.40;;;18.20;46.80;;;;;;5086289;28;20496;-44
2021/01/20 02:10:43;;;;;;;1.45;1.13;;;18.20;46.80;;;;;;5085179;28;20535;-39
2021/01/20 02:13:36;;;;;;;2.58;1.10;;;18.20;46.80;;;;;;5081171;28;20044;-40
2021/01/20 02:16:13;;;;;;;1.40;1.10;;;18.20;46.80;;;;;;5081318;28;20048;-41
2021/01/20 02:18:41;;;;;;;3.25;1.20;;;18.20;46.70;;;;;;5083584;28;20479;-40
2021/01/20 02:21:30;;;;;;;2.17;1.33;;;18.20;46.80;;;;;;5082106;28;20094;-44
2021/01/20 02:23:59;;;;;;;2.30;1.05;;;18.20;46.70;;;;;;5079289;28;20044;-42
2021/01/20 02:26:47;;;;;;;3.17;1.35;;;18.20;46.80;;;;;;5088940;28;20113;-40
2021/01/20 02:29:35;;;;;;;3.20;1.30;;;18.20;46.70;;;;;;5083602;28;20037;-41
2021/01/20 02:32:05;;;;;;;1.88;1.00;;;18.20;46.70;;;;;;5083506;28;20094;-43
2021/01/20 02:34:34;;;;;;;3.03;1.00;;;18.20;46.70;;;;;;5093517;28;20041;-40
2021/01/20 02:37:03;;;;;;;2.25;1.20;;;18.20;46.70;;;;;;5083300;28;20051;-39
2021/01/20 02:39:32;;;;;;;1.75;1.02;;;18.20;46.70;;;;;;5081958;28;20048;-41
2021/01/20 02:42:05;;;;;;;2.90;1.20;;;18.20;46.70;;;;;;5081210;28;20078;-40
2021/01/20 02:44:37;;;;;;;1.57;0.97;;;18.20;47.30;;;;;;5076764;28;20098;-45
2021/01/20 02:47:08;;;;;;;2.38;1.17;;;18.20;46.70;;;;;;5077888;28;20044;-39
2021/01/20 02:49:36;;;;;;;2.55;1.20;;;18.20;46.70;;;;;;5078587;28;20036;-42
2021/01/20 02:52:33;;;;;;;1.90;1.00;;;18.20;46.70;;;;;;5080032;28;20499;-39
2021/01/20 02:55:02;;;;;;;2.33;1.10;;;18.20;46.70;;;;;;5084018;28;20047;-39
2021/01/20 02:57:32;;;;;;;3.28;1.02;;;18.20;46.70;;;;;;5082450;28;20538;-41
2021/01/20 03:00:01;;;;;;;1.80;1.08;;;18.20;46.70;;;;;;5083051;28;20091;-40
2021/01/20 03:02:30;;;;;;;2.40;1.20;;;18.20;46.70;;;;;;5085980;28;20052;-39
2021/01/20 03:04:59;;;;;;;3.88;1.38;;;18.20;46.60;;;;;;5086578;28;20123;-41
2021/01/20 03:07:32;;;;;;;1.33;1.02;;;18.20;46.60;;;;;;5075618;28;20044;-40
2021/01/20 03:10:00;;;;;;;2.30;1.23;;;18.20;46.60;;;;;;5085719;28;20044;-39
2021/01/20 03:12:31;;;;;;;3.10;1.42;;;18.20;46.60;;;;;;5082456;28;20458;-40
2021/01/20 03:14:59;;;;;;;2.10;1.50;;;18.20;46.60;;;;;;5080940;28;20045;-40
2021/01/20 03:17:31;;;;;;;3.28;1.30;;;18.20;46.60;;;;;;5086194;28;20052;-40
2021/01/20 03:19:58;;;;;;;2.85;1.20;;;18.20;46.60;;;;;;5081884;28;20044;-39
2021/01/20 03:22:25;;;;;;;1.95;1.23;;;18.20;46.60;;;;;;5083580;28;20389;-41
2021/01/20 03:24:52;;;;;;;3.03;1.48;;;18.20;46.60;;;;;;5085759;28;20047;-39
2021/01/20 03:27:18;;;;;;;1.50;1.00;;;18.20;46.60;;;;;;5078721;28;20056;-40
2021/01/20 03:29:45;;;;;;;2.55;1.23;;;18.20;46.60;;;;;;5084408;28;20097;-40
2021/01/20 03:32:11;;;;;;;1.85;1.17;;;18.20;47.10;;;;;;5078508;28;20048;-39
2021/01/20 03:34:39;;;;;;;1.90;1.10;;;18.20;46.60;;;;;;5086976;28;20047;-39
2021/01/20 03:37:07;;;;;;;3.83;1.05;;;18.20;46.50;;;;;;5087347;28;20056;-41
2021/01/20 03:39:33;;;;;;;3.08;1.45;;;18.20;46.50;;;;;;5082344;28;20452;-44
2021/01/20 03:42:00;;;;;;;2.30;0.98;;;18.20;46.50;;;;;;5080969;28;20052;-41
2021/01/20 03:44:26;;;;;;;2.60;1.40;;;18.20;46.50;;;;;;5087706;28;20084;-40
2021/01/20 03:46:53;;;;;;;1.63;1.00;;;18.20;46.50;;;;;;5084182;28;20380;-39
2021/01/20 03:49:20;;;;;;;2.22;0.90;;;18.20;46.50;;;;;;5092190;28;20467;-43
2021/01/20 03:51:46;;;;;;;2.45;1.27;;;18.20;46.50;;;;;;5085727;28;20045;-41
2021/01/20 03:54:14;;;;;;;1.38;1.10;;;18.20;46.50;;;;;;5087082;28;20047;-39
2021/01/20 03:56:40;;;;;;;2.80;1.02;;;18.20;46.50;;;;;;5088340;28;20098;-41
2021/01/20 03:59:07;;;;;;;1.63;1.00;;;18.20;46.50;;;;;;5091950;28;20040;-40
2021/01/20 04:01:34;;;;;;;2.67;1.13;;;18.20;46.50;;;;;;5083885;28;20071;-41
2021/01/20 04:04:02;;;;;;;1.73;1.15;;;18.20;46.50;;;;;;5088419;28;20054;-41
2021/01/20 04:06:28;;;;;;;2.75;1.08;;;18.20;46.50;;;;;;5086727;28;20397;-44
2021/01/20 04:08:55;;;;;;;2.38;1.50;;;18.20;46.50;;;;;;5085412;28;20094;-42
2021/01/20 04:11:21;;;;;;;2.47;1.10;;;18.20;46.50;;;;;;5084295;28;20052;-43
2021/01/20 04:13:49;;;;;;;1.60;1.00;;;18.20;46.50;;;;;;5087319;28;20037;-41
2021/01/20 04:16:15;;;;;;;3.08;1.10;;;18.20;46.40;;;;;;5083147;28;20393;-40
2021/01/20 04:18:43;;;;;;;1.70;1.10;;;18.20;46.40;;;;;;5080288;28;20080;-40
2021/01/20 04:21:10;;;;;;;2.45;1.17;;;18.20;46.50;;;;;;5083598;28;20052;-39
2021/01/20 04:23:37;;;;;;;2.55;0.93;;;18.20;46.40;;;;;;5089041;28;20052;-40
2021/01/20 04:26:08;;;;;;;1.65;1.10;;;18.20;46.50;;;;;;5087838;28;20081;-39
2021/01/20 04:28:35;;;;;;;2.95;1.38;;;18.20;46.40;;;;;;5089988;28;20044;-40
2021/01/20 04:31:04;;;;;;;1.73;1.10;;;18.20;46.50;;;;;;5089937;28;20560;-39
2021/01/20 04:33:31;;;;;;;2.97;1.48;;;18.20;46.40;;;;;;5091858;28;20078;-39
2021/01/20 04:35:59;;;;;;;1.10;0.80;;;18.20;46.40;;;;;;5089554;28;20044;-41
2021/01/20 04:38:25;;;;;;;1.70;1.02;;;18.20;46.40;;;;;;5088673;28;20439;-40
2021/01/20 04:40:56;;;;;;;1.77;1.23;;;18.20;46.40;;;;;;5086708;28;20495;-39
2021/01/20 04:43:24;;;;;;;1.40;0.82;;;18.20;46.40;;;;;;5083645;28;20499;-39
2021/01/20 04:45:53;;;;;;;2.00;1.15;;;18.20;46.40;;;;;;5083566;28;20040;-39
2021/01/20 04:48:20;;;;;;;2.20;1.20;;;18.20;46.40;;;;;;5082649;28;20044;-39
2021/01/20 04:50:48;;;;;;;1.30;1.05;;;18.20;46.40;;;;;;5084431;28;20067;-39
2021/01/20 04:53:15;;;;;;;1.00;0.90;;;18.20;46.40;;;;;;5083888;28;20099;-39
2021/01/20 04:55:43;;;;;;;1.30;1.13;;;18.20;46.40;;;;;;5092698;28;20040;-39
2021/01/20 04:58:11;;;;;;;1.40;1.05;;;18.20;46.40;;;;;;5086280;28;20403;-39
2021/01/20 05:00:39;;;;;;;1.88;0.90;;;18.20;46.40;;;;;;5079361;28;20056;-39
2021/01/20 05:03:07;;;;;;;2.05;1.00;;;18.20;46.40;;;;;;5079033;28;20052;-39
2021/01/20 05:05:35;;;;;;;1.83;1.42;;;18.20;46.40;;;;;;5084417;28;20047;-39
2021/01/20 05:08:05;;;;;;;2.05;0.98;;;18.20;46.40;;;;;;5080149;28;20044;-39
2021/01/20 05:10:32;;;;;;;1.40;1.00;;;18.20;46.40;;;;;;5084533;28;20045;-42
2021/01/20 05:13:00;;;;;;;1.67;1.20;;;18.20;46.40;;;;;;5090046;28;20495;-46
2021/01/20 05:15:35;;;;;;;2.08;0.95;;;18.20;46.40;;;;;;5087725;28;20503;-43
2021/01/20 05:18:04;;;;;;;1.33;1.10;;;18.20;46.40;;;;;;5082390;28;20044;-47
2021/01/20 05:20:33;;;;;;;1.35;1.10;;;18.20;46.40;;;;;;5086659;28;20052;-47
2021/01/20 05:23:02;;;;;;;1.42;1.00;;;18.20;46.40;;;;;;5087045;28;20093;-42
2021/01/20 05:25:32;;;;;;;1.85;1.10;;;18.20;46.40;;;;;;5083433;28;20047;-41
2021/01/20 05:28:19;;;;;;;1.98;1.23;;;18.20;46.40;;;;;;5079247;28;20480;-45
2021/01/20 05:30:59;;;;;;;1.25;1.00;;;18.20;46.70;;;;;;5083924;28;20400;-41
2021/01/20 05:33:28;;;;;;;1.63;1.00;;;18.20;46.40;;;;;;5082711;28;20056;-40
2021/01/20 05:36:08;;;;;;;1.60;1.20;;;18.20;46.40;;;;;;5083582;28;20043;-42
2021/01/20 05:38:44;;;;;;;2.17;1.33;;;18.20;47.00;;;;;;5090312;28;20048;-42
2021/01/20 05:41:20;;;;;;;2.08;1.00;;;18.20;46.40;;;;;;5084129;28;20045;-43
2021/01/20 05:43:49;;;;;;;1.80;1.08;;;18.20;46.40;;;;;;5084790;28;20068;-40
2021/01/20 05:46:36;;;;;;;1.63;1.00;;;18.20;46.30;;;;;;5083231;28;20528;-42
2021/01/20 05:49:05;;;;;;;1.45;1.00;;;18.20;46.30;;;;;;5087411;28;20430;-41
2021/01/20 05:51:42;;;;;;;1.75;1.20;;;18.20;46.30;;;;;;5082273;28;20041;-44
2021/01/20 05:54:10;;;;;;;1.58;0.98;;;18.20;46.30;;;;;;5081213;28;20067;-45
2021/01/20 05:56:37;;;;;;;1.65;1.05;;;18.20;46.30;;;;;;5081513;28;20045;-40
2021/01/20 05:59:09;;;;;;;1.80;0.93;;;18.20;46.30;;;;;;5080842;28;20048;-40
2021/01/20 06:01:38;;;;;;;1.42;1.05;;;18.20;46.30;;;;;;5087476;28;20051;-39
2021/01/20 06:04:06;;;;;;;1.77;1.10;;;18.20;46.30;;;;;;5088236;28;20052;-40
2021/01/20 06:06:35;;;;;;;2.58;0.85;;;18.20;46.30;;;;;;5087162;28;20411;-39
2021/01/20 06:09:02;;;;;;;1.15;0.77;;;18.20;46.30;;;;;;5086096;28;20040;-39
2021/01/20 06:11:29;;;;;;;1.48;1.13;;;18.20;46.30;;;;;;5086618;28;20105;-40
2021/01/20 06:13:55;;;;;;;1.85;0.98;;;18.20;46.30;;;;;;5087489;28;20036;-40
2021/01/20 06:16:29;;;;;;;1.58;0.90;;;18.20;46.30;;;;;;5089592;28;20094;-40
2021/01/20 06:19:08;;;;;;;1.67;1.00;;;18.20;46.20;;;;;;5085877;28;20058;-40
2021/01/20 06:21:36;;;;;;;1.60;0.95;;;18.20;46.20;;;;;;5071115;28;20045;-42
2021/01/20 06:24:14;;;;;;;1.23;0.80;;;18.20;46.20;;;;;;5085310;28;20044;-39
2021/01/20 06:26:48;;;;;;;1.58;1.20;;;18.20;46.20;;;;;;5076551;28;20052;-44
2021/01/20 06:29:16;;;;;;;2.25;1.17;;;18.20;46.20;;;;;;5077489;28;20093;-42
2021/01/20 06:31:45;;;;;;;1.80;0.95;;;18.20;46.20;;;;;;5085742;28;20483;-41
2021/01/20 06:34:12;;;;;;;1.15;1.00;;;18.20;46.20;;;;;;5075430;28;20040;-40
2021/01/20 06:36:38;;;;;;;1.30;1.02;;;18.20;46.20;;;;;;5081734;28;20384;-41
2021/01/20 06:39:27;;;;;;;1.35;1.13;;;18.20;46.20;;;;;;5080676;28;20624;-43
2021/01/20 06:41:58;;;;;;;1.38;0.93;;;18.20;46.20;;;;;;5080919;28;20056;-40
2021/01/20 06:44:25;;;;;;;2.65;1.20;;;18.20;46.20;;;;;;5083011;28;20052;-40
2021/01/20 06:46:57;;;;;;;1.35;0.90;;;18.20;46.20;;;;;;5083636;28;20090;-42
2021/01/20 06:49:33;;;;;;;1.70;1.15;;;18.20;46.20;;;;;;5085404;28;20420;-42
2021/01/20 06:52:07;;;;;;;1.85;1.00;;;18.20;46.20;;;;;;5086310;28;20500;-41
2021/01/20 06:54:37;;;;;;;1.33;1.10;;;18.20;46.20;;;;;;5079076;28;20080;-41
2021/01/20 06:57:29;;;;;;;1.90;1.15;;;18.20;46.20;;;;;;5085918;28;20123;-39
2021/01/20 07:00:08;;;;;;;1.23;1.00;;;18.20;46.20;;;;;;5084774;28;20055;-42
2021/01/20 07:02:36;;;;;;;1.27;0.95;;;18.20;46.20;;;;;;5082525;28;20054;-42
2021/01/20 07:05:07;;;;;;;1.98;1.25;;;18.20;46.20;;;;;;5076888;28;20044;-39
2021/01/20 07:08:04;;;;;;;2.03;1.08;;;18.20;46.20;;;;;;5082943;28;20044;-39
2021/01/20 07:10:52;;;;;;;1.50;1.08;;;18.20;46.20;;;;;;5083984;28;20105;-39
2021/01/20 07:13:20;;;;;;;3.50;1.17;;;18.20;46.20;;;;;;5079924;28;20547;-41
2021/01/20 07:15:52;;;;;;;1.23;0.88;;;18.20;46.20;;;;;;5081877;28;20040;-39
2021/01/20 07:18:22;;;;;;;1.48;1.08;;;18.20;46.20;;;;;;5085280;28;20048;-40
2021/01/20 07:20:49;;;;;;;2.65;0.90;;;18.20;46.20;;;;;;5080879;28;20097;-40
2021/01/20 07:23:16;;;;;;;1.60;1.13;;;18.20;46.20;;;;;;5084639;28;20048;-40
2021/01/20 07:25:48;;;;;;;1.25;1.08;;;18.20;46.10;;;;;;5085536;28;20079;-40
2021/01/20 07:28:15;;;;;;;1.30;1.13;;;18.30;46.20;;;;;;5086377;28;20055;-40
2021/01/20 07:30:42;;;;;;;2.30;1.00;;;18.30;46.20;;;;;;5083098;28;20556;-39
2021/01/20 07:33:19;;;;;;;1.20;1.00;;;18.30;46.20;;;;;;5081262;28;20040;-39
2021/01/20 07:35:47;;;;;;;1.55;0.80;;;18.30;46.20;;;;;;5082179;28;20048;-40
2021/01/20 07:38:13;;;;;;;1.60;1.00;;;18.30;46.20;;;;;;5080907;28;20440;-41
2021/01/20 07:40:42;;;;;;;1.17;0.98;;;18.20;46.10;;;;;;5084506;28;20052;-39
2021/01/20 07:43:20;;;;;;;1.20;1.00;;;18.30;46.20;;;;;;5084119;28;20044;-39
2021/01/20 07:45:47;;;;;;;2.83;1.00;;;18.30;46.20;;;;;;5084538;28;20048;-40
2021/01/20 07:48:14;;;;;;;1.52;1.08;;;18.30;46.20;;;;;;5081541;28;20093;-40
2021/01/20 07:50:45;;;;;;;1.92;1.08;;;18.30;46.20;;;;;;5085121;28;20511;-40
2021/01/20 07:53:15;;;;;;;1.35;1.08;;;18.30;46.20;;;;;;5079627;28;20040;-42
2021/01/20 07:55:43;;;;;;;1.05;0.80;;;18.30;46.20;;;;;;5081184;28;20105;-41
2021/01/20 07:58:10;;;;;;;1.30;1.00;;;18.30;46.20;;;;;;5080946;28;20090;-40
2021/01/20 08:00:43;;;;;;;1.42;1.00;;;18.30;46.10;;;;;;5077954;28;20044;-39
2021/01/20 08:03:10;;;;;;;1.65;1.00;;;18.30;46.10;;;;;;5078639;28;20053;-41
2021/01/20 08:05:38;;;;;;;1.52;1.17;;;18.30;46.10;;;;;;5084579;28;20106;-40
2021/01/20 08:08:06;;;;;;;1.27;1.10;;;18.30;46.10;;;;;;5083466;28;20047;-40
2021/01/20 08:10:33;;;;;;;1.58;1.00;;;18.30;46.10;;;;;;5087258;28;20094;-41
2021/01/20 08:13:01;;;;;;;1.38;0.90;;;18.30;46.10;;;;;;5085780;28;20048;-39
2021/01/20 08:15:31;;;;;;;1.00;0.80;;;18.30;46.10;;;;;;5081625;28;20063;-40
2021/01/20 08:17:59;;;;;;;1.65;0.88;;;18.30;46.10;;;;;;5085859;28;20048;-40
2021/01/20 08:20:31;;;;;;;1.67;1.02;;;18.30;46.10;;;;;;5082831;28;20506;-39
2021/01/20 08:22:59;;;;;;;1.40;1.10;;;18.30;46.00;;;;;;5073650;28;20040;-41
2021/01/20 08:25:25;;;;;;;1.83;0.95;;;18.30;46.00;;;;;;5079331;28;20458;-40
2021/01/20 08:27:54;;;;;;;1.60;0.88;;;18.30;46.00;;;;;;5078415;28;20044;-39
2021/01/20 08:30:49;;;;;;;1.85;1.10;;;18.30;46.00;;;;;;5080765;28;20041;-39
2021/01/20 08:33:20;;;;;;;1.90;1.25;;;18.40;46.10;;;;;;5063905;28;20439;-39
2021/01/20 08:35:57;;;;;;;1.45;1.20;;;18.40;46.10;;;;;;5084470;28;20043;-40
2021/01/20 08:38:29;;;;;;;0.95;0.80;;;18.40;46.10;;;;;;5083129;28;20044;-40
2021/01/20 08:41:12;;;;;;;1.63;1.10;;;18.40;46.10;;;;;;5084773;28;20043;-40
2021/01/20 08:43:39;;;;;;;1.60;1.00;;;18.40;46.10;;;;;;5078354;28;20040;-41
2021/01/20 08:46:25;;;;;;;1.90;1.17;;;18.30;46.00;;;;;;5085109;28;20053;-40
2021/01/20 08:48:58;;;;;;;1.30;0.90;;;18.30;46.00;;;;;;5077906;28;20208;-39
2021/01/20 08:51:25;;;;;;;0.93;0.73;;;18.40;46.10;;;;;;5085490;28;20435;-39
2021/01/20 08:53:52;;;;;;;1.98;1.20;;;18.40;46.10;;;;;;5085939;28;20044;-41
2021/01/20 08:56:26;;;;;;;1.30;0.93;;;18.40;46.10;;;;;;5083213;28;20040;-39
2021/01/20 08:59:07;;;;;;;1.20;1.00;;;18.40;46.10;;;;;;5080754;28;20076;-41
2021/01/20 09:01:34;;;;;;;2.17;1.25;;;18.40;46.10;;;;;;5084189;28;20055;-41
2021/01/20 09:04:06;;;;;;;1.50;1.00;;;18.40;46.10;;;;;;5082457;28;20115;-41
2021/01/20 09:06:33;;;;;;;1.08;0.93;;;18.40;46.10;;;;;;5084238;28;20040;-42
2021/01/20 09:09:00;;;;;;;1.20;0.82;;;18.40;46.10;;;;;;5084636;28;20047;-41
2021/01/20 09:11:27;;;;;;;0.82;0.75;;;18.40;46.10;;;;;;5084293;28;20105;-41
2021/01/20 09:13:56;;;;;;;1.40;0.95;;;18.40;46.00;;;;;;5091227;28;20047;-40
2021/01/20 09:16:27;;;;;;;1.08;0.82;;;18.40;46.00;;;;;;5085972;28;20052;-41
2021/01/20 09:18:54;;;;;;;1.10;0.85;;;18.40;46.00;;;;;;5080693;28;20094;-41
2021/01/20 09:21:21;;;;;;;0.98;0.90;;;18.40;46.00;;;;;;5086208;28;20044;-42
2021/01/20 09:23:51;;;;;;;1.50;0.93;;;18.40;46.00;;;;;;5082586;28;20060;-41
2021/01/20 09:26:18;;;;;;;1.52;0.90;;;18.40;46.00;;;;;;5082039;28;20157;-44
2021/01/20 09:28:45;;;;;;;2.08;1.23;;;18.40;46.00;;;;;;5077473;28;20404;-48
2021/01/20 09:31:12;;;;;;;1.00;0.90;;;18.40;46.00;;;;;;5088646;28;20043;-45
2021/01/20 09:33:39;;;;;;;1.00;0.80;;;18.40;46.00;;;;;;5077874;28;20036;-46
2021/01/20 09:36:06;;;;;;;1.33;1.20;;;18.40;46.00;;;;;;5087964;28;20044;-46
2021/01/20 09:38:32;;;;;;;1.17;0.90;;;18.40;46.00;;;;;;5083501;28;20077;-42
2021/01/20 09:41:02;;;;;;;1.50;1.10;;;18.40;46.00;;;;;;5083954;28;20408;-48
2021/01/20 09:43:29;;;;;;;1.55;1.17;;;18.40;45.90;;;;;;5077984;28;20048;-44
2021/01/20 09:45:57;;;;;;;2.15;1.20;;;18.40;45.90;;;;;;5078589;28;20111;-42
2021/01/20 09:48:23;;;;;;;1.15;0.90;;;18.40;45.90;;;;;;5085743;28;20048;-42
2021/01/20 09:50:50;;;;;;;1.05;0.80;;;18.40;45.90;;;;;;5088601;28;20090;-43
2021/01/20 09:53:17;;;;;;;1.55;1.23;;;18.40;45.90;;;;;;5084179;28;20496;-42
2021/01/20 09:55:44;;;;;;;1.10;0.88;;;18.50;46.00;;;;;;5090348;28;20048;-42
2021/01/20 09:58:10;;;;;;;2.08;1.02;;;18.40;45.90;;;;;;5088577;28;20044;-44
2021/01/20 10:00:38;;;;;;;1.38;1.17;;;18.50;46.00;;;;;;5086752;28;20050;-44
2021/01/20 10:03:06;;;;;;;1.80;1.05;;;18.40;45.90;;;;;;5088280;28;20418;-42
2021/01/20 10:05:34;;;;;;;2.55;1.20;;;18.50;46.00;;;;;;5081652;28;20054;-40
2021/01/20 10:08:00;;;;;;;1.83;1.30;;;18.50;46.00;;;;;;5083220;28;20045;-41
2021/01/20 10:10:27;;;;;;;1.35;0.90;;;18.50;46.00;;;;;;5084688;28;20048;-43
2021/01/20 10:12:55;;;;;;;1.80;1.10;;;18.50;46.00;;;;;;5079182;28;20412;-42
2021/01/20 10:15:23;;;;;;;1.17;1.00;;;18.50;46.00;;;;;;5081913;28;20049;-40
2021/01/20 10:17:52;;;;;;;1.60;0.90;;;18.40;45.90;;;;;;5084694;28;20052;-42
2021/01/20 10:20:20;;;;;;;1.13;0.98;;;18.50;46.00;;;;;;5085526;28;20071;-44
2021/01/20 10:22:47;;;;;;;1.38;1.08;;;18.50;46.00;;;;;;5081122;28;20056;-42
2021/01/20 10:25:14;;;;;;;1.45;1.10;;;18.50;46.00;;;;;;5074631;28;20055;-40
2021/01/20 10:27:41;;;;;;;1.45;0.98;;;18.50;46.00;;;;;;5083840;28;20044;-41
2021/01/20 10:30:08;;;;;;;1.80;1.10;;;18.50;46.00;;;;;;5083894;28;20059;-42
2021/01/20 10:32:35;;;;;;;1.13;0.95;;;18.50;46.00;;;;;;5082573;28;20044;-40
2021/01/20 10:35:02;;;;;;;1.08;0.98;;;18.50;46.00;;;;;;5084615;28;20060;-41
2021/01/20 10:37:29;;;;;;;1.65;1.10;;;18.50;45.90;;;;;;5080501;28;20056;-42
2021/01/20 10:39:58;;;;;;;1.27;0.90;;;18.50;45.90;;;;;;5085261;28;20066;-40
2021/01/20 10:42:25;;;;;;;1.30;1.00;;;18.50;45.90;;;;;;5085453;28;20052;-40
2021/01/20 10:44:51;;;;;;;1.38;1.20;;;18.50;45.90;;;;;;5082727;28;20055;-41
2021/01/20 10:47:18;;;;;;;0.98;0.88;;;18.50;45.90;;;;;;5087344;28;20047;-41
2021/01/20 10:49:45;;;;;;;1.25;0.93;;;18.50;45.90;;;;;;5087744;28;20044;-41
2021/01/20 10:52:12;;;;;;;1.00;0.90;;;18.50;45.90;;;;;;5087085;28;20040;-41
2021/01/20 10:54:39;;;;;;;1.33;0.95;;;18.50;45.90;;;;;;5084669;28;20040;-40
2021/01/20 10:57:06;;;;;;;1.05;0.95;;;18.50;45.90;;;;;;5078929;28;20048;-41
2021/01/20 10:59:41;;;;;;;1.25;0.80;;;18.50;45.90;;;;;;5079429;28;20051;-42
2021/01/20 11:02:11;;;;;;;1.08;0.98;;;18.50;45.90;;;;;;5080325;28;20048;-41
2021/01/20 11:04:39;;;;;;;1.17;0.98;;;18.50;45.90;;;;;;5096781;28;20048;-40
2021/01/20 11:07:06;;;;;;;0.95;0.80;;;18.50;45.90;;;;;;5083432;28;20102;-40
2021/01/20 11:09:33;;;;;;;1.20;1.00;;;18.50;45.90;;;;;;5086455;28;20044;-41
2021/01/20 11:12:00;;;;;;;1.27;1.10;;;18.50;45.90;;;;;;5079775;28;20056;-40
2021/01/20 11:14:29;;;;;;;1.02;0.90;;;18.50;45.90;;;;;;5084943;28;20095;-42
2021/01/20 11:16:56;;;;;;;1.25;1.02;;;18.50;45.90;;;;;;5079768;28;20092;-41
2021/01/20 11:19:24;;;;;;;1.42;0.95;;;18.50;45.90;;;;;;5074449;28;20040;-42
2021/01/20 11:21:54;;;;;;;1.38;1.00;;;18.50;45.90;;;;;;5078602;28;20037;-41
2021/01/20 11:24:22;;;;;;;1.23;0.95;;;18.50;45.90;;;;;;5083752;28;20044;-41
2021/01/20 11:26:50;;;;;;;1.75;1.17;;;18.60;46.00;;;;;;5078751;28;20052;-40
2021/01/20 11:29:18;;;;;;;1.30;1.02;;;18.60;46.00;;;;;;5076708;28;20048;-40
2021/01/20 11:31:45;;;;;;;1.50;1.10;;;18.60;45.90;;;;;;5081987;28;20515;-41
2021/01/20 11:34:12;;;;;;;1.63;1.20;;;18.60;46.00;;;;;;5087397;28;20044;-40
2021/01/20 11:36:39;;;;;;;1.25;0.98;;;18.60;46.00;;;;;;5087252;28;20098;-42
2021/01/20 11:39:05;;;;;;;1.23;0.88;;;18.50;45.90;;;;;;5082628;28;20110;-40
2021/01/20 11:41:32;;;;;;;1.15;0.90;;;18.60;45.90;;;;;;5088156;28;20089;-41
2021/01/20 11:43:59;;;;;;;2.10;1.00;;;18.60;45.90;;;;;;5086229;28;20044;-41
2021/01/20 11:46:26;;;;;;;1.92;1.00;;;18.60;45.90;;;;;;5084526;28;20055;-41
2021/01/20 11:48:54;;;;;;;1.30;1.05;;;18.60;45.90;;;;;;5081829;28;20119;-41
2021/01/20 11:51:20;;;;;;;2.17;1.20;;;18.60;45.90;;;;;;5082127;28;20056;-41
2021/01/20 11:53:47;;;;;;;1.25;0.90;;;18.60;45.90;;;;;;5082118;28;20040;-41
2021/01/20 11:56:13;;;;;;;1.50;1.13;;;18.60;45.90;;;;;;5080278;28;20430;-40
2021/01/20 11:58:40;;;;;;;1.10;1.00;;;18.60;45.90;;;;;;5084805;28;20047;-42
2021/01/20 12:01:07;;;;;;;1.48;1.08;;;18.60;45.90;;;;;;5081270;28;20114;-42
2021/01/20 12:03:34;;;;;;;1.55;1.05;;;18.60;45.90;;;;;;5085685;28;20048;-41
2021/01/20 12:06:00;;;;;;;1.27;0.77;;;18.60;45.90;;;;;;5075311;28;20080;-41
2021/01/20 12:08:28;;;;;;;1.17;1.08;;;18.60;45.90;;;;;;5075850;28;20048;-40
2021/01/20 12:10:54;;;;;;;0.90;0.80;;;18.60;45.90;;;;;;5081387;28;20381;-42
2021/01/20 12:13:22;;;;;;;1.67;1.20;;;18.60;45.90;;;;;;5079393;28;20044;-40
2021/01/20 12:16:01;;;;;;;1.52;1.00;;;18.60;45.90;;;;;;5085002;28;20037;-40
2021/01/20 12:18:29;;;;;;;1.40;1.00;;;18.60;45.90;;;;;;5088675;28;20059;-40
2021/01/20 12:20:59;;;;;;;1.17;0.90;;;18.60;45.90;;;;;;5084116;28;20048;-40
2021/01/20 12:23:26;;;;;;;1.42;1.00;;;18.60;45.90;;;;;;5088067;28;20044;-40
2021/01/20 12:25:53;;;;;;;1.20;0.90;;;18.60;45.90;;;;;;5081094;28;20086;-40
2021/01/20 12:28:20;;;;;;;1.13;0.73;;;18.60;45.90;;;;;;5090904;28;20044;-40
2021/01/20 12:30:47;;;;;;;1.83;0.90;;;18.60;45.90;;;;;;5089214;28;20041;-41
2021/01/20 12:33:13;;;;;;;1.08;0.73;;;18.60;45.90;;;;;;5086780;28;20044;-41
2021/01/20 12:35:40;;;;;;;1.10;1.00;;;18.60;45.90;;;;;;5079772;28;20113;-41
2021/01/20 12:38:07;;;;;;;1.35;1.00;;;18.60;45.90;;;;;;5086030;28;20048;-41
2021/01/20 12:40:34;;;;;;;1.10;0.88;;;18.60;45.90;;;;;;5084495;28;20076;-40
2021/01/20 12:43:00;;;;;;;0.82;0.77;;;18.60;45.90;;;;;;5085832;28;20048;-40
2021/01/20 12:45:27;;;;;;;1.25;1.00;;;18.60;45.90;;;;;;5088815;28;20450;-41
2021/01/20 12:47:54;;;;;;;1.30;1.00;;;18.60;45.90;;;;;;5088525;28;20044;-40
2021/01/20 12:50:21;;;;;;;1.55;1.00;;;18.60;45.90;;;;;;5091428;28;20048;-42
2021/01/20 12:52:57;;;;;;;1.00;0.90;;;18.60;45.90;;;;;;5085908;28;20047;-40
2021/01/20 12:55:24;;;;;;;1.38;1.02;;;18.60;45.90;;;;;;5087491;28;20101;-40
2021/01/20 12:57:51;;;;;;;1.67;1.00;;;18.60;45.90;;;;;;5084533;28;20454;-40